sensor_id;sensor_type;location;lat;lon;timestamp;temperature;humidity
32506;DHT22;18955;51.224;8.482;2022-10-15T00:00:00;11.60;81.60
32506;DHT22;18955;51.224;8.482;2022-10-15T00:02:26;11.60;81.60
32506;DHT22;18955;51.224;8.482;2022-10-15T00:04:52;11.60;81.60
32506;DHT22;18955;51.224;8.482;2022-10-15T00:07:18;11.60;81.60
32506;DHT22;18955;51.224;8.482;2022-10-15T00:09:45;11.60;81.70
32506;DHT22;18955;51.224;8.482;2022-10-15T00:12:11;11.60;81.60
32506;DHT22;18955;51.224;8.482;2022-10-15T00:14:37;11.60;81.60
32506;DHT22;18955;51.224;8.482;2022-10-15T00:17:03;11.60;81.60
32506;DHT22;18955;51.224;8.482;2022-10-15T00:19:29;11.60;81.60
32506;DHT22;18955;51.224;8.482;2022-10-15T00:21:56;11.60;81.60
32506;DHT22;18955;51.224;8.482;2022-10-15T00:24:22;11.60;81.70
32506;DHT22;18955;51.224;8.482;2022-10-15T00:26:48;11.60;81.60
32506;DHT22;18955;51.224;8.482;2022-10-15T00:29:14;11.60;81.70
32506;DHT22;18955;51.224;8.482;2022-10-15T00:31:41;11.60;81.70
32506;DHT22;18955;51.224;8.482;2022-10-15T00:34:08;11.60;82.30
32506;DHT22;18955;51.224;8.482;2022-10-15T00:36:36;11.60;81.70
32506;DHT22;18955;51.224;8.482;2022-10-15T00:39:04;11.60;81.80
32506;DHT22;18955;51.224;8.482;2022-10-15T00:41:39;11.60;81.80
32506;DHT22;18955;51.224;8.482;2022-10-15T00:46:49;11.60;81.60
32506;DHT22;18955;51.224;8.482;2022-10-15T00:51:48;11.60;81.70
32506;DHT22;18955;51.224;8.482;2022-10-15T00:54:18;11.60;81.80
32506;DHT22;18955;51.224;8.482;2022-10-15T00:56:46;11.60;81.70
32506;DHT22;18955;51.224;8.482;2022-10-15T00:59:15;11.60;81.70
32506;DHT22;18955;51.224;8.482;2022-10-15T01:01:42;11.60;81.60
32506;DHT22;18955;51.224;8.482;2022-10-15T01:04:09;11.50;82.20
32506;DHT22;18955;51.224;8.482;2022-10-15T01:06:37;11.60;81.70
32506;DHT22;18955;51.224;8.482;2022-10-15T01:09:04;11.50;81.60
32506;DHT22;18955;51.224;8.482;2022-10-15T01:11:44;11.60;81.50
32506;DHT22;18955;51.224;8.482;2022-10-15T01:14:48;11.50;81.60
32506;DHT22;18955;51.224;8.482;2022-10-15T01:17:22;11.50;81.70
32506;DHT22;18955;51.224;8.482;2022-10-15T01:23:18;11.50;81.70
32506;DHT22;18955;51.224;8.482;2022-10-15T01:31:54;11.50;81.60
32506;DHT22;18955;51.224;8.482;2022-10-15T01:40:25;11.50;81.70
32506;DHT22;18955;51.224;8.482;2022-10-15T01:42:57;11.50;81.70
32506;DHT22;18955;51.224;8.482;2022-10-15T01:45:37;11.50;81.80
32506;DHT22;18955;51.224;8.482;2022-10-15T01:48:24;11.50;81.80
32506;DHT22;18955;51.224;8.482;2022-10-15T01:50:58;11.50;81.70
32506;DHT22;18955;51.224;8.482;2022-10-15T01:53:26;11.50;81.70
32506;DHT22;18955;51.224;8.482;2022-10-15T01:55:56;11.50;81.70
32506;DHT22;18955;51.224;8.482;2022-10-15T01:58:23;11.50;81.70
32506;DHT22;18955;51.224;8.482;2022-10-15T02:00:52;11.50;81.70
32506;DHT22;18955;51.224;8.482;2022-10-15T02:03:19;11.50;81.70
32506;DHT22;18955;51.224;8.482;2022-10-15T02:05:55;11.50;81.70
32506;DHT22;18955;51.224;8.482;2022-10-15T02:08:44;11.50;81.80
32506;DHT22;18955;51.224;8.482;2022-10-15T02:11:14;11.50;81.70
32506;DHT22;18955;51.224;8.482;2022-10-15T02:19:17;11.50;81.80
32506;DHT22;18955;51.224;8.482;2022-10-15T02:24:22;11.50;81.70
32506;DHT22;18955;51.224;8.482;2022-10-15T02:26:52;11.50;81.70
32506;DHT22;18955;51.224;8.482;2022-10-15T02:29:23;11.50;81.70
32506;DHT22;18955;51.224;8.482;2022-10-15T02:31:52;11.50;81.80
32506;DHT22;18955;51.224;8.482;2022-10-15T02:34:20;11.50;81.70
32506;DHT22;18955;51.224;8.482;2022-10-15T02:36:48;11.50;81.70
32506;DHT22;18955;51.224;8.482;2022-10-15T02:39:18;11.50;81.80
32506;DHT22;18955;51.224;8.482;2022-10-15T02:41:46;11.50;81.80
32506;DHT22;18955;51.224;8.482;2022-10-15T02:44:13;11.50;82.30
32506;DHT22;18955;51.224;8.482;2022-10-15T02:46:40;11.50;81.70
32506;DHT22;18955;51.224;8.482;2022-10-15T02:49:06;11.50;81.70
32506;DHT22;18955;51.224;8.482;2022-10-15T02:51:34;11.50;81.70
32506;DHT22;18955;51.224;8.482;2022-10-15T02:54:02;11.50;81.80
32506;DHT22;18955;51.224;8.482;2022-10-15T02:56:29;11.50;81.80
32506;DHT22;18955;51.224;8.482;2022-10-15T02:58:55;11.50;81.80
32506;DHT22;18955;51.224;8.482;2022-10-15T03:01:21;11.50;81.80
32506;DHT22;18955;51.224;8.482;2022-10-15T03:03:48;11.50;81.80
32506;DHT22;18955;51.224;8.482;2022-10-15T03:06:14;11.50;81.80
32506;DHT22;18955;51.224;8.482;2022-10-15T03:08:41;11.50;81.80
32506;DHT22;18955;51.224;8.482;2022-10-15T03:11:08;11.50;81.70
32506;DHT22;18955;51.224;8.482;2022-10-15T03:13:38;11.50;81.70
32506;DHT22;18955;51.224;8.482;2022-10-15T03:16:10;11.50;81.80
32506;DHT22;18955;51.224;8.482;2022-10-15T03:18:38;11.50;81.80
32506;DHT22;18955;51.224;8.482;2022-10-15T03:21:04;11.50;81.80
32506;DHT22;18955;51.224;8.482;2022-10-15T03:23:31;11.50;81.80
32506;DHT22;18955;51.224;8.482;2022-10-15T03:26:05;11.50;81.80
32506;DHT22;18955;51.224;8.482;2022-10-15T03:28:32;11.50;81.80
32506;DHT22;18955;51.224;8.482;2022-10-15T03:30:59;11.40;81.70
32506;DHT22;18955;51.224;8.482;2022-10-15T03:33:26;11.40;81.70
32506;DHT22;18955;51.224;8.482;2022-10-15T03:35:54;11.50;81.70
32506;DHT22;18955;51.224;8.482;2022-10-15T03:38:22;11.50;81.70
32506;DHT22;18955;51.224;8.482;2022-10-15T03:40:51;11.50;81.70
32506;DHT22;18955;51.224;8.482;2022-10-15T03:43:39;11.50;81.80
32506;DHT22;18955;51.224;8.482;2022-10-15T03:46:06;11.50;81.80
32506;DHT22;18955;51.224;8.482;2022-10-15T03:48:36;11.40;81.70
32506;DHT22;18955;51.224;8.482;2022-10-15T03:51:03;11.40;81.70
32506;DHT22;18955;51.224;8.482;2022-10-15T03:53:29;11.40;81.70
32506;DHT22;18955;51.224;8.482;2022-10-15T03:56:02;11.40;81.60
32506;DHT22;18955;51.224;8.482;2022-10-15T03:58:29;11.40;81.60
32506;DHT22;18955;51.224;8.482;2022-10-15T04:00:58;11.40;81.70
32506;DHT22;18955;51.224;8.482;2022-10-15T04:03:24;11.40;81.60
32506;DHT22;18955;51.224;8.482;2022-10-15T04:05:52;11.40;81.60
32506;DHT22;18955;51.224;8.482;2022-10-15T04:08:20;11.40;81.60
32506;DHT22;18955;51.224;8.482;2022-10-15T04:10:46;11.40;81.60
32506;DHT22;18955;51.224;8.482;2022-10-15T04:13:13;11.40;81.60
32506;DHT22;18955;51.224;8.482;2022-10-15T04:15:41;11.40;81.60
32506;DHT22;18955;51.224;8.482;2022-10-15T04:18:10;11.40;81.60
32506;DHT22;18955;51.224;8.482;2022-10-15T04:20:37;11.40;81.60
32506;DHT22;18955;51.224;8.482;2022-10-15T04:23:16;11.40;81.50
32506;DHT22;18955;51.224;8.482;2022-10-15T04:25:59;11.40;81.60
32506;DHT22;18955;51.224;8.482;2022-10-15T04:28:27;11.40;81.50
32506;DHT22;18955;51.224;8.482;2022-10-15T04:30:57;11.40;81.60
32506;DHT22;18955;51.224;8.482;2022-10-15T04:33:24;11.40;81.60
32506;DHT22;18955;51.224;8.482;2022-10-15T04:36:12;11.40;81.60
32506;DHT22;18955;51.224;8.482;2022-10-15T04:38:48;11.40;81.60
32506;DHT22;18955;51.224;8.482;2022-10-15T04:41:21;11.40;81.60
32506;DHT22;18955;51.224;8.482;2022-10-15T04:44:02;11.40;81.60
32506;DHT22;18955;51.224;8.482;2022-10-15T04:46:30;11.40;82.10
32506;DHT22;18955;51.224;8.482;2022-10-15T04:49:00;11.40;81.50
32506;DHT22;18955;51.224;8.482;2022-10-15T04:51:28;11.40;81.50
32506;DHT22;18955;51.224;8.482;2022-10-15T04:54:11;11.40;81.50
32506;DHT22;18955;51.224;8.482;2022-10-15T04:56:51;11.40;81.50
32506;DHT22;18955;51.224;8.482;2022-10-15T04:59:18;11.40;81.60
32506;DHT22;18955;51.224;8.482;2022-10-15T05:02:02;11.40;81.50
32506;DHT22;18955;51.224;8.482;2022-10-15T05:04:29;11.40;81.50
32506;DHT22;18955;51.224;8.482;2022-10-15T05:06:56;11.40;81.60
32506;DHT22;18955;51.224;8.482;2022-10-15T05:09:22;11.40;81.50
32506;DHT22;18955;51.224;8.482;2022-10-15T05:11:50;11.40;81.50
32506;DHT22;18955;51.224;8.482;2022-10-15T05:14:16;11.40;81.50
32506;DHT22;18955;51.224;8.482;2022-10-15T05:16:51;11.40;81.40
32506;DHT22;18955;51.224;8.482;2022-10-15T05:19:17;11.40;81.40
32506;DHT22;18955;51.224;8.482;2022-10-15T05:21:44;11.40;81.50
32506;DHT22;18955;51.224;8.482;2022-10-15T05:24:21;11.40;81.50
32506;DHT22;18955;51.224;8.482;2022-10-15T05:26:53;11.40;81.50
32506;DHT22;18955;51.224;8.482;2022-10-15T05:29:20;11.40;81.50
32506;DHT22;18955;51.224;8.482;2022-10-15T05:31:49;11.40;81.40
32506;DHT22;18955;51.224;8.482;2022-10-15T05:34:19;11.40;81.40
32506;DHT22;18955;51.224;8.482;2022-10-15T05:36:52;11.40;81.40
32506;DHT22;18955;51.224;8.482;2022-10-15T05:39:18;11.40;81.50
32506;DHT22;18955;51.224;8.482;2022-10-15T05:41:45;11.40;81.30
32506;DHT22;18955;51.224;8.482;2022-10-15T05:44:11;11.40;81.40
32506;DHT22;18955;51.224;8.482;2022-10-15T05:46:37;11.40;81.40
32506;DHT22;18955;51.224;8.482;2022-10-15T05:49:03;11.40;81.40
32506;DHT22;18955;51.224;8.482;2022-10-15T05:51:39;11.40;81.50
32506;DHT22;18955;51.224;8.482;2022-10-15T05:54:10;11.40;81.40
32506;DHT22;18955;51.224;8.482;2022-10-15T05:56:37;11.40;81.40
32506;DHT22;18955;51.224;8.482;2022-10-15T05:59:03;11.30;81.40
32506;DHT22;18955;51.224;8.482;2022-10-15T06:01:29;11.40;81.40
32506;DHT22;18955;51.224;8.482;2022-10-15T06:03:55;11.40;81.40
32506;DHT22;18955;51.224;8.482;2022-10-15T06:06:23;11.40;81.30
32506;DHT22;18955;51.224;8.482;2022-10-15T06:08:49;11.40;81.40
32506;DHT22;18955;51.224;8.482;2022-10-15T06:11:16;11.40;81.40
32506;DHT22;18955;51.224;8.482;2022-10-15T06:13:42;11.40;81.40
32506;DHT22;18955;51.224;8.482;2022-10-15T06:16:08;11.40;81.40
32506;DHT22;18955;51.224;8.482;2022-10-15T06:18:35;11.40;81.40
32506;DHT22;18955;51.224;8.482;2022-10-15T06:21:03;11.40;81.40
32506;DHT22;18955;51.224;8.482;2022-10-15T06:23:29;11.40;81.50
32506;DHT22;18955;51.224;8.482;2022-10-15T06:25:55;11.40;81.50
32506;DHT22;18955;51.224;8.482;2022-10-15T06:28:21;11.40;81.50
32506;DHT22;18955;51.224;8.482;2022-10-15T06:30:47;11.40;81.30
32506;DHT22;18955;51.224;8.482;2022-10-15T06:33:13;11.40;81.40
32506;DHT22;18955;51.224;8.482;2022-10-15T06:35:41;11.40;81.50
32506;DHT22;18955;51.224;8.482;2022-10-15T06:38:07;11.40;81.50
32506;DHT22;18955;51.224;8.482;2022-10-15T06:40:33;11.40;81.60
32506;DHT22;18955;51.224;8.482;2022-10-15T06:43:06;11.30;81.60
32506;DHT22;18955;51.224;8.482;2022-10-15T06:45:36;11.40;81.70
32506;DHT22;18955;51.224;8.482;2022-10-15T06:48:05;11.40;81.60
32506;DHT22;18955;51.224;8.482;2022-10-15T06:50:33;11.30;81.50
32506;DHT22;18955;51.224;8.482;2022-10-15T06:52:59;11.40;81.50
32506;DHT22;18955;51.224;8.482;2022-10-15T06:55:27;11.30;81.60
32506;DHT22;18955;51.224;8.482;2022-10-15T06:57:56;11.30;81.60
32506;DHT22;18955;51.224;8.482;2022-10-15T07:00:25;11.40;81.70
32506;DHT22;18955;51.224;8.482;2022-10-15T07:02:52;11.30;81.50
32506;DHT22;18955;51.224;8.482;2022-10-15T07:05:18;11.30;81.50
32506;DHT22;18955;51.224;8.482;2022-10-15T07:07:54;11.30;81.60
32506;DHT22;18955;51.224;8.482;2022-10-15T07:10:22;11.30;81.50
32506;DHT22;18955;51.224;8.482;2022-10-15T07:12:48;11.30;81.60
32506;DHT22;18955;51.224;8.482;2022-10-15T07:15:14;11.30;81.50
32506;DHT22;18955;51.224;8.482;2022-10-15T07:17:47;11.40;81.60
32506;DHT22;18955;51.224;8.482;2022-10-15T07:20:14;11.30;81.60
32506;DHT22;18955;51.224;8.482;2022-10-15T07:22:40;11.30;81.50
32506;DHT22;18955;51.224;8.482;2022-10-15T07:25:06;11.30;82.10
32506;DHT22;18955;51.224;8.482;2022-10-15T07:27:32;11.30;81.50
32506;DHT22;18955;51.224;8.482;2022-10-15T07:29:59;11.30;81.50
32506;DHT22;18955;51.224;8.482;2022-10-15T07:32:25;11.30;81.50
32506;DHT22;18955;51.224;8.482;2022-10-15T07:34:52;11.30;81.50
32506;DHT22;18955;51.224;8.482;2022-10-15T07:37:18;11.30;81.50
32506;DHT22;18955;51.224;8.482;2022-10-15T07:39:44;11.30;81.40
32506;DHT22;18955;51.224;8.482;2022-10-15T07:42:10;11.30;81.40
32506;DHT22;18955;51.224;8.482;2022-10-15T07:44:36;11.40;81.50
32506;DHT22;18955;51.224;8.482;2022-10-15T07:47:05;11.30;81.50
32506;DHT22;18955;51.224;8.482;2022-10-15T07:49:31;11.30;81.50
32506;DHT22;18955;51.224;8.482;2022-10-15T07:51:58;11.30;81.40
32506;DHT22;18955;51.224;8.482;2022-10-15T07:54:24;11.30;81.40
32506;DHT22;18955;51.224;8.482;2022-10-15T07:56:50;11.30;81.40
32506;DHT22;18955;51.224;8.482;2022-10-15T07:59:16;11.30;81.40
32506;DHT22;18955;51.224;8.482;2022-10-15T08:01:42;11.30;81.40
32506;DHT22;18955;51.224;8.482;2022-10-15T08:04:08;11.30;81.30
32506;DHT22;18955;51.224;8.482;2022-10-15T08:06:35;11.30;81.40
32506;DHT22;18955;51.224;8.482;2022-10-15T08:09:03;11.40;81.40
32506;DHT22;18955;51.224;8.482;2022-10-15T08:11:29;11.30;81.50
32506;DHT22;18955;51.224;8.482;2022-10-15T08:13:55;11.30;82.20
32506;DHT22;18955;51.224;8.482;2022-10-15T08:16:21;11.40;82.60
32506;DHT22;18955;51.224;8.482;2022-10-15T08:18:57;11.40;82.20
32506;DHT22;18955;51.224;8.482;2022-10-15T08:21:23;11.40;82.20
32506;DHT22;18955;51.224;8.482;2022-10-15T08:23:49;11.40;82.10
32506;DHT22;18955;51.224;8.482;2022-10-15T08:26:17;11.40;81.80
32506;DHT22;18955;51.224;8.482;2022-10-15T08:28:43;11.40;81.70
32506;DHT22;18955;51.224;8.482;2022-10-15T08:31:09;11.40;81.70
32506;DHT22;18955;51.224;8.482;2022-10-15T08:33:36;11.40;81.70
32506;DHT22;18955;51.224;8.482;2022-10-15T08:36:05;11.40;82.20
32506;DHT22;18955;51.224;8.482;2022-10-15T08:38:32;11.40;81.60
32506;DHT22;18955;51.224;8.482;2022-10-15T08:40:58;11.40;81.60
32506;DHT22;18955;51.224;8.482;2022-10-15T08:43:43;11.40;81.50
32506;DHT22;18955;51.224;8.482;2022-10-15T08:46:15;11.40;81.50
32506;DHT22;18955;51.224;8.482;2022-10-15T08:48:44;11.40;81.40
32506;DHT22;18955;51.224;8.482;2022-10-15T08:53:38;11.40;81.30
32506;DHT22;18955;51.224;8.482;2022-10-15T08:56:13;11.40;81.40
32506;DHT22;18955;51.224;8.482;2022-10-15T08:58:45;11.50;81.40
32506;DHT22;18955;51.224;8.482;2022-10-15T09:08:41;11.50;81.50
32506;DHT22;18955;51.224;8.482;2022-10-15T09:14:11;11.50;81.50
32506;DHT22;18955;51.224;8.482;2022-10-15T09:16:39;11.50;81.50
32506;DHT22;18955;51.224;8.482;2022-10-15T09:19:14;11.50;81.50
32506;DHT22;18955;51.224;8.482;2022-10-15T09:21:41;11.50;81.50
32506;DHT22;18955;51.224;8.482;2022-10-15T09:24:08;11.50;81.40
32506;DHT22;18955;51.224;8.482;2022-10-15T09:29:19;11.50;81.50
32506;DHT22;18955;51.224;8.482;2022-10-15T09:31:57;11.50;81.40
32506;DHT22;18955;51.224;8.482;2022-10-15T09:36:59;11.60;81.50
32506;DHT22;18955;51.224;8.482;2022-10-15T09:39:31;11.60;81.60
32506;DHT22;18955;51.224;8.482;2022-10-15T09:44:29;11.60;81.80
32506;DHT22;18955;51.224;8.482;2022-10-15T09:46:57;11.60;81.70
32506;DHT22;18955;51.224;8.482;2022-10-15T09:54:30;11.60;81.60
32506;DHT22;18955;51.224;8.482;2022-10-15T09:57:00;11.60;81.70
32506;DHT22;18955;51.224;8.482;2022-10-15T09:59:26;11.70;81.50
32506;DHT22;18955;51.224;8.482;2022-10-15T10:01:57;11.70;82.20
32506;DHT22;18955;51.224;8.482;2022-10-15T10:04:27;11.70;82.00
32506;DHT22;18955;51.224;8.482;2022-10-15T10:06:58;11.70;81.90
32506;DHT22;18955;51.224;8.482;2022-10-15T10:09:38;11.70;82.20
32506;DHT22;18955;51.224;8.482;2022-10-15T10:12:22;11.80;82.60
32506;DHT22;18955;51.224;8.482;2022-10-15T10:14:57;11.70;82.00
32506;DHT22;18955;51.224;8.482;2022-10-15T10:17:28;11.80;82.40
32506;DHT22;18955;51.224;8.482;2022-10-15T10:20:17;11.80;82.30
32506;DHT22;18955;51.224;8.482;2022-10-15T10:22:49;11.80;82.10
32506;DHT22;18955;51.224;8.482;2022-10-15T10:33:27;11.90;82.70
32506;DHT22;18955;51.224;8.482;2022-10-15T10:35:54;11.90;82.60
32506;DHT22;18955;51.224;8.482;2022-10-15T10:38:24;11.90;82.70
32506;DHT22;18955;51.224;8.482;2022-10-15T10:40:53;11.90;82.60
32506;DHT22;18955;51.224;8.482;2022-10-15T10:43:26;11.90;82.60
32506;DHT22;18955;51.224;8.482;2022-10-15T10:46:04;12.00;82.70
32506;DHT22;18955;51.224;8.482;2022-10-15T10:48:45;12.00;82.60
32506;DHT22;18955;51.224;8.482;2022-10-15T10:51:14;12.00;82.60
32506;DHT22;18955;51.224;8.482;2022-10-15T10:53:55;12.00;82.60
32506;DHT22;18955;51.224;8.482;2022-10-15T10:56:41;12.00;82.60
32506;DHT22;18955;51.224;8.482;2022-10-15T10:59:18;12.10;82.60
32506;DHT22;18955;51.224;8.482;2022-10-15T11:01:49;12.00;82.60
32506;DHT22;18955;51.224;8.482;2022-10-15T11:04:35;12.00;82.60
32506;DHT22;18955;51.224;8.482;2022-10-15T11:10:10;12.10;82.70
32506;DHT22;18955;51.224;8.482;2022-10-15T11:13:00;12.10;82.90
32506;DHT22;18955;51.224;8.482;2022-10-15T11:15:41;12.00;82.80
32506;DHT22;18955;51.224;8.482;2022-10-15T11:24:34;12.10;82.80
32506;DHT22;18955;51.224;8.482;2022-10-15T11:30:31;12.10;82.80
32506;DHT22;18955;51.224;8.482;2022-10-15T11:33:11;12.10;82.80
32506;DHT22;18955;51.224;8.482;2022-10-15T11:41:20;12.20;82.90
32506;DHT22;18955;51.224;8.482;2022-10-15T11:44:06;12.20;82.80
32506;DHT22;18955;51.224;8.482;2022-10-15T11:46:37;12.20;82.90
32506;DHT22;18955;51.224;8.482;2022-10-15T11:54:46;12.20;82.80
32506;DHT22;18955;51.224;8.482;2022-10-15T11:57:16;12.20;82.90
32506;DHT22;18955;51.224;8.482;2022-10-15T11:59:57;12.20;82.80
32506;DHT22;18955;51.224;8.482;2022-10-15T12:02:34;12.30;83.00
32506;DHT22;18955;51.224;8.482;2022-10-15T12:05:18;12.30;82.90
32506;DHT22;18955;51.224;8.482;2022-10-15T12:07:48;12.30;83.00
32506;DHT22;18955;51.224;8.482;2022-10-15T12:20:59;12.30;82.90
32506;DHT22;18955;51.224;8.482;2022-10-15T12:23:39;12.30;82.80
32506;DHT22;18955;51.224;8.482;2022-10-15T12:28:53;12.40;82.80
32506;DHT22;18955;51.224;8.482;2022-10-15T12:31:20;12.40;82.80
32506;DHT22;18955;51.224;8.482;2022-10-15T12:33:51;12.40;82.80
32506;DHT22;18955;51.224;8.482;2022-10-15T12:39:21;12.40;82.70
32506;DHT22;18955;51.224;8.482;2022-10-15T12:41:48;12.40;82.60
32506;DHT22;18955;51.224;8.482;2022-10-15T12:44:19;12.40;82.70
32506;DHT22;18955;51.224;8.482;2022-10-15T12:46:48;12.40;82.70
32506;DHT22;18955;51.224;8.482;2022-10-15T12:51:59;12.50;82.70
32506;DHT22;18955;51.224;8.482;2022-10-15T12:54:41;12.50;82.70
32506;DHT22;18955;51.224;8.482;2022-10-15T12:59:58;12.50;82.60
32506;DHT22;18955;51.224;8.482;2022-10-15T13:02:35;12.50;82.70
32506;DHT22;18955;51.224;8.482;2022-10-15T13:05:03;12.50;82.60
32506;DHT22;18955;51.224;8.482;2022-10-15T13:07:32;12.50;82.70
32506;DHT22;18955;51.224;8.482;2022-10-15T13:10:02;12.50;82.80
32506;DHT22;18955;51.224;8.482;2022-10-15T13:12:29;12.50;82.70
32506;DHT22;18955;51.224;8.482;2022-10-15T13:15:01;12.50;82.70
32506;DHT22;18955;51.224;8.482;2022-10-15T13:17:29;12.60;82.70
32506;DHT22;18955;51.224;8.482;2022-10-15T13:20:04;12.60;82.70
32506;DHT22;18955;51.224;8.482;2022-10-15T13:22:34;12.60;82.70
32506;DHT22;18955;51.224;8.482;2022-10-15T13:25:01;12.60;82.90
32506;DHT22;18955;51.224;8.482;2022-10-15T13:27:32;12.60;83.90
32506;DHT22;18955;51.224;8.482;2022-10-15T13:30:01;12.70;84.40
32506;DHT22;18955;51.224;8.482;2022-10-15T13:32:31;12.80;84.00
32506;DHT22;18955;51.224;8.482;2022-10-15T13:34:59;12.70;83.80
32506;DHT22;18955;51.224;8.482;2022-10-15T13:37:30;12.70;83.80
32506;DHT22;18955;51.224;8.482;2022-10-15T13:39:58;12.70;84.00
32506;DHT22;18955;51.224;8.482;2022-10-15T13:42:25;12.70;83.70
32506;DHT22;18955;51.224;8.482;2022-10-15T13:55:22;12.80;83.90
32506;DHT22;18955;51.224;8.482;2022-10-15T13:57:50;12.70;83.40
32506;DHT22;18955;51.224;8.482;2022-10-15T14:00:26;12.70;83.30
32506;DHT22;18955;51.224;8.482;2022-10-15T14:03:13;12.80;83.40
32506;DHT22;18955;51.224;8.482;2022-10-15T14:05:45;12.80;83.40
32506;DHT22;18955;51.224;8.482;2022-10-15T14:08:18;12.80;83.50
32506;DHT22;18955;51.224;8.482;2022-10-15T14:10:46;12.80;83.40
32506;DHT22;18955;51.224;8.482;2022-10-15T14:13:12;12.80;83.40
32506;DHT22;18955;51.224;8.482;2022-10-15T14:18:08;12.80;83.40
32506;DHT22;18955;51.224;8.482;2022-10-15T14:20:35;12.80;83.20
32506;DHT22;18955;51.224;8.482;2022-10-15T14:23:01;12.80;83.20
32506;DHT22;18955;51.224;8.482;2022-10-15T14:25:28;12.80;83.20
32506;DHT22;18955;51.224;8.482;2022-10-15T14:27:54;12.80;83.20
32506;DHT22;18955;51.224;8.482;2022-10-15T14:30:31;12.80;83.10
32506;DHT22;18955;51.224;8.482;2022-10-15T14:32:59;12.80;83.10
32506;DHT22;18955;51.224;8.482;2022-10-15T14:35:29;12.80;83.30
32506;DHT22;18955;51.224;8.482;2022-10-15T14:38:13;12.90;83.30
32506;DHT22;18955;51.224;8.482;2022-10-15T14:40:39;12.90;83.30
32506;DHT22;18955;51.224;8.482;2022-10-15T14:43:16;12.90;83.40
32506;DHT22;18955;51.224;8.482;2022-10-15T14:48:22;12.90;83.20
32506;DHT22;18955;51.224;8.482;2022-10-15T14:50:48;12.90;83.20
32506;DHT22;18955;51.224;8.482;2022-10-15T14:53:22;12.90;83.20
32506;DHT22;18955;51.224;8.482;2022-10-15T14:55:51;12.90;83.20
32506;DHT22;18955;51.224;8.482;2022-10-15T14:58:20;12.90;83.20
32506;DHT22;18955;51.224;8.482;2022-10-15T15:00:57;12.90;83.20
32506;DHT22;18955;51.224;8.482;2022-10-15T15:03:29;12.90;83.10
32506;DHT22;18955;51.224;8.482;2022-10-15T15:05:56;12.90;83.20
32506;DHT22;18955;51.224;8.482;2022-10-15T15:08:24;12.90;83.00
32506;DHT22;18955;51.224;8.482;2022-10-15T15:10:51;12.90;83.00
32506;DHT22;18955;51.224;8.482;2022-10-15T15:13:25;12.90;83.10
32506;DHT22;18955;51.224;8.482;2022-10-15T15:15:52;12.90;83.00
32506;DHT22;18955;51.224;8.482;2022-10-15T15:18:18;13.00;83.00
32506;DHT22;18955;51.224;8.482;2022-10-15T15:20:46;13.00;83.10
32506;DHT22;18955;51.224;8.482;2022-10-15T15:23:24;13.00;83.10
32506;DHT22;18955;51.224;8.482;2022-10-15T15:25:53;13.00;83.00
32506;DHT22;18955;51.224;8.482;2022-10-15T15:28:23;13.00;83.10
32506;DHT22;18955;51.224;8.482;2022-10-15T15:30:58;13.00;83.00
32506;DHT22;18955;51.224;8.482;2022-10-15T15:33:25;13.00;82.90
32506;DHT22;18955;51.224;8.482;2022-10-15T15:35:58;13.00;83.00
32506;DHT22;18955;51.224;8.482;2022-10-15T15:38:25;13.00;82.90
32506;DHT22;18955;51.224;8.482;2022-10-15T15:41:09;13.00;82.90
32506;DHT22;18955;51.224;8.482;2022-10-15T15:43:36;13.00;82.90
32506;DHT22;18955;51.224;8.482;2022-10-15T15:46:02;13.00;82.80
32506;DHT22;18955;51.224;8.482;2022-10-15T15:48:28;13.00;82.80
32506;DHT22;18955;51.224;8.482;2022-10-15T15:50:58;13.00;82.90
32506;DHT22;18955;51.224;8.482;2022-10-15T15:53:26;13.00;82.80
32506;DHT22;18955;51.224;8.482;2022-10-15T15:55:55;13.00;82.80
32506;DHT22;18955;51.224;8.482;2022-10-15T15:58:22;13.00;82.90
32506;DHT22;18955;51.224;8.482;2022-10-15T16:00:48;13.00;82.90
32506;DHT22;18955;51.224;8.482;2022-10-15T16:03:14;13.00;82.90
32506;DHT22;18955;51.224;8.482;2022-10-15T16:05:41;13.00;82.90
32506;DHT22;18955;51.224;8.482;2022-10-15T16:08:08;13.00;82.90
32506;DHT22;18955;51.224;8.482;2022-10-15T16:10:35;13.00;82.80
32506;DHT22;18955;51.224;8.482;2022-10-15T16:13:02;13.00;82.90
32506;DHT22;18955;51.224;8.482;2022-10-15T16:15:28;13.00;82.80
32506;DHT22;18955;51.224;8.482;2022-10-15T16:17:54;13.10;82.80
32506;DHT22;18955;51.224;8.482;2022-10-15T16:20:21;13.10;82.90
32506;DHT22;18955;51.224;8.482;2022-10-15T16:22:50;13.10;83.00
32506;DHT22;18955;51.224;8.482;2022-10-15T16:25:17;13.10;82.90
32506;DHT22;18955;51.224;8.482;2022-10-15T16:27:43;13.10;82.90
32506;DHT22;18955;51.224;8.482;2022-10-15T16:30:17;13.10;83.00
32506;DHT22;18955;51.224;8.482;2022-10-15T16:32:44;13.10;83.00
32506;DHT22;18955;51.224;8.482;2022-10-15T16:35:10;13.10;83.00
32506;DHT22;18955;51.224;8.482;2022-10-15T16:37:36;13.10;82.80
32506;DHT22;18955;51.224;8.482;2022-10-15T16:40:03;13.10;82.80
32506;DHT22;18955;51.224;8.482;2022-10-15T16:42:29;13.10;82.90
32506;DHT22;18955;51.224;8.482;2022-10-15T16:44:56;13.10;83.00
32506;DHT22;18955;51.224;8.482;2022-10-15T16:47:22;13.10;83.00
32506;DHT22;18955;51.224;8.482;2022-10-15T16:49:48;13.10;82.90
32506;DHT22;18955;51.224;8.482;2022-10-15T16:52:15;13.10;83.00
32506;DHT22;18955;51.224;8.482;2022-10-15T16:54:41;13.10;83.00
32506;DHT22;18955;51.224;8.482;2022-10-15T16:57:07;13.10;83.00
32506;DHT22;18955;51.224;8.482;2022-10-15T16:59:33;13.10;83.00
32506;DHT22;18955;51.224;8.482;2022-10-15T17:02:00;13.10;83.10
32506;DHT22;18955;51.224;8.482;2022-10-15T17:04:26;13.10;83.30
32506;DHT22;18955;51.224;8.482;2022-10-15T17:06:52;13.10;83.40
32506;DHT22;18955;51.224;8.482;2022-10-15T17:09:18;13.10;83.20
32506;DHT22;18955;51.224;8.482;2022-10-15T17:11:45;13.10;83.30
32506;DHT22;18955;51.224;8.482;2022-10-15T17:14:14;13.10;83.20
32506;DHT22;18955;51.224;8.482;2022-10-15T17:16:42;13.10;83.20
32506;DHT22;18955;51.224;8.482;2022-10-15T17:19:10;13.10;83.20
32506;DHT22;18955;51.224;8.482;2022-10-15T17:21:37;13.10;83.10
32506;DHT22;18955;51.224;8.482;2022-10-15T17:24:04;13.10;83.10
32506;DHT22;18955;51.224;8.482;2022-10-15T17:26:34;13.10;83.20
32506;DHT22;18955;51.224;8.482;2022-10-15T17:29:08;13.10;83.40
32506;DHT22;18955;51.224;8.482;2022-10-15T17:31:35;13.20;83.30
32506;DHT22;18955;51.224;8.482;2022-10-15T17:34:04;13.10;83.30
32506;DHT22;18955;51.224;8.482;2022-10-15T17:36:35;13.10;83.70
32506;DHT22;18955;51.224;8.482;2022-10-15T17:39:03;13.10;83.20
32506;DHT22;18955;51.224;8.482;2022-10-15T17:41:30;13.10;83.20
32506;DHT22;18955;51.224;8.482;2022-10-15T17:43:57;13.10;83.20
32506;DHT22;18955;51.224;8.482;2022-10-15T17:46:25;13.20;83.40
32506;DHT22;18955;51.224;8.482;2022-10-15T17:48:53;13.20;83.30